Time;durP1;ratioP1;P1;durP2;ratioP2;P2;SDS_P1;SDS_P2;PMS_P1;PMS_P2;Temp;Humidity;BMP_temperature;BMP_pressure;BME280_temperature;BME280_humidity;BME280_pressure;Samples;Min_cycle;Max_cycle;Signal;HPM_P1;HPM_P2
2023/03/18 00:02:14;;;;;;;;;;;;;;;;;;;;;
2023/03/18 00:05:39;;;;;;;;;;;;;;;;;;;;;
2023/03/18 00:11:52;;;;;;;;;;;;;;;;;;;;;
2023/03/18 00:18:33;;;;;;;6.73;4.13;;;13.60;99.90;;;;;;5008466;28;20454;-85
2023/03/18 00:21:44;;;;;;;8.00;3.57;;;13.60;99.90;;;;;;4989199;28;20493;-87
2023/03/18 00:24:36;;;;;;;7.80;4.00;;;13.60;99.90;;;;;;4989835;28;20437;-85
2023/03/18 00:27:44;;;;;;;11.17;4.50;;;13.60;99.90;;;;;;4982121;28;20477;-84
2023/03/18 00:34:06;;;;;;;10.40;4.50;;;13.50;99.90;;;;;;5009498;28;20442;-87
2023/03/18 00:47:19;;;;;;;4.87;3.90;;;13.40;99.90;;;;;;5003430;28;20543;-86
2023/03/18 00:52:45;;;;;;;;;;;;;;;;;;;;;
2023/03/18 00:56:10;;;;;;;;;;;;;;;;;;;;;
2023/03/18 01:02:33;;;;;;;7.50;3.77;;;13.30;1.00;;;;;;5006349;28;20488;-86
2023/03/18 01:12:59;;;;;;;;;;;;;;;;;;;;;
2023/03/18 01:22:48;;;;;;;;;;;;;;;;;;;;;
2023/03/18 01:29:21;;;;;;;;;;;;;;;;;;;;;
2023/03/18 01:39:05;;;;;;;;;;;;;;;;;;;;;
2023/03/18 01:41:57;;;;;;;;;;;;;;;;;;;;;
2023/03/18 02:15:36;;;;;;;;;;;;;;;;;;;;;
2023/03/18 02:21:26;;;;;;;10.60;4.27;;;12.20;99.90;;;;;;4990727;28;20955;-84
2023/03/18 02:28:05;;;;;;;;;;;;;;;;;;;;;
2023/03/18 02:34:43;;;;;;;8.90;4.60;;;11.80;99.90;;;;;;4992517;28;20453;-86
2023/03/18 02:37:33;;;;;;;;;;;;;;;;;;;;;
2023/03/18 02:40:30;;;;;;;;;;;;;;;;;;;;;
2023/03/18 02:43:19;;;;;;;6.53;4.43;;;11.70;99.90;;;;;;5017315;28;20469;-84
2023/03/18 02:46:37;;;;;;;;;;;;;;;;;;;;;
2023/03/18 02:49:39;;;;;;;;;;;;;;;;;;;;;
2023/03/18 02:52:53;;;;;;;;;;;;;;;;;;;;;
2023/03/18 02:59:47;;;;;;;12.63;5.60;;;11.60;1.00;;;;;;5013621;28;20442;-84
2023/03/18 03:09:17;;;;;;;5.20;4.47;;;11.60;61.60;;;;;;5010827;28;20473;-85
2023/03/18 03:15:38;;;;;;;;;;;;;;;;;;;;;
2023/03/18 03:25:26;;;;;;;;;;;;;;;;;;;;;
2023/03/18 03:31:28;;;;;;;8.50;4.53;;;11.60;1.00;;;;;;5014180;28;20458;-86
2023/03/18 03:38:11;;;;;;;;;;;;;;;;;;;;;
2023/03/18 03:48:30;;;;;;;5.97;4.00;;;11.50;99.90;;;;;;5003608;28;20458;-85
2023/03/18 03:57:47;;;;;;;5.30;4.10;;;11.70;51.60;;;;;;5002602;28;20434;-86
2023/03/18 04:00:42;;;;;;;6.10;4.33;;;11.90;89.20;;;;;;5015021;28;20469;-85
2023/03/18 04:10:29;;;;;;;6.13;3.60;;;12.00;99.90;;;;;;5004222;28;20488;-84
2023/03/18 04:16:58;;;;;;;;;;;;;;;;;;;;;
2023/03/18 04:26:42;;;;;;;;;;;;;;;;;;;;;
2023/03/18 04:30:29;;;;;;;8.37;3.70;;;12.20;1.00;;;;;;5015332;28;20533;-85
2023/03/18 04:33:31;;;;;;;;;;;;;;;;;;;;;
2023/03/18 04:39:18;;;;;;;5.67;3.90;;;12.10;1.00;;;;;;5000646;28;20449;-83
2023/03/18 04:42:33;;;;;;;;;;;;;;;;;;;;;
2023/03/18 04:45:27;;;;;;;7.10;3.60;;;12.10;99.90;;;;;;5007384;28;21726;-83
2023/03/18 04:55:05;;;;;;;;;;;;;;;;;;;;;
2023/03/18 04:58:15;;;;;;;4.17;3.67;;;12.20;1.00;;;;;;5014971;28;20459;-85
2023/03/18 05:08:26;;;;;;;;;;;;;;;;;;;;;
2023/03/18 05:14:04;;;;;;;;;;;;;;;;;;;;;
2023/03/18 05:23:55;;;;;;;;;;;;;;;;;;;;;
2023/03/18 05:37:20;;;;;;;6.67;5.13;;;11.50;99.90;;;;;;4997914;28;21246;-84
2023/03/18 05:40:35;;;;;;;;;;;;;;;;;;;;;
2023/03/18 05:43:34;;;;;;;;;;;;;;;;;;;;;
2023/03/18 05:46:59;;;;;;;;;;;;;;;;;;;;;
2023/03/18 05:49:49;;;;;;;;;;;;;;;;;;;;;
2023/03/18 06:05:25;;;;;;;;;;;;;;;;;;;;;
2023/03/18 06:18:52;;;;;;;9.70;5.37;;;11.70;12.80;;;;;;5012672;28;20438;-85
2023/03/18 06:22:20;;;;;;;6.33;4.53;;;12.20;99.90;;;;;;5016007;28;20468;-85
2023/03/18 06:31:55;;;;;;;;;;;;;;;;;;;;;
2023/03/18 06:38:26;;;;;;;6.00;2.90;;;28.50;99.90;;;;;;5017118;28;20442;-84
2023/03/18 06:41:30;;;;;;;;;;;;;;;;;;;;;
2023/03/18 06:44:51;;;;;;;;;;;;;;;;;;;;;
2023/03/18 07:04:55;;;;;;;;;;;;;;;;;;;;;
2023/03/18 07:08:01;;;;;;;;;;;;;;;;;;;;;
2023/03/18 07:22:04;;;;;;;;;;;;;;;;;;;;;
2023/03/18 07:53:32;;;;;;;;;;;;;;;;;;;;;
2023/03/18 08:21:11;;;;;;;2.70;2.23;;;42.20;99.90;;;;;;5000231;28;20484;-84
2023/03/18 08:24:47;;;;;;;;;;;;;;;;;;;;;
2023/03/18 08:27:44;;;;;;;;;;;;;;;;;;;;;
2023/03/18 08:30:42;;;;;;;3.13;1.90;;;36.40;99.90;;;;;;5017551;28;20532;-83
2023/03/18 08:40:34;;;;;;;;;;;;;;;;;;;;;
2023/03/18 08:50:27;;;;;;;3.23;1.70;;;41.80;99.90;;;;;;5006316;28;20457;-85
2023/03/18 08:56:17;;;;;;;;;;;;;;;;;;;;;
2023/03/18 08:59:03;;;;;;;2.00;1.57;;;41.00;99.90;;;;;;5017880;28;20497;-85
2023/03/18 09:12:36;;;;;;;3.23;1.50;;;42.70;99.90;;;;;;4993691;28;20480;-85
2023/03/18 09:15:44;;;;;;;2.13;1.50;;;42.70;99.90;;;;;;5013300;28;20467;-84
2023/03/18 09:18:23;;;;;;;;;;;;;;;;;;;;;
2023/03/18 09:24:17;;;;;;;;;;;;;;;;;;;;;
2023/03/18 09:27:31;;;;;;;3.23;2.10;;;39.20;99.90;;;;;;5015736;28;20561;-84
2023/03/18 09:29:55;;;;;;;4.67;1.80;;;39.40;99.90;;;;;;5018738;28;20469;-82
2023/03/18 09:32:29;;;;;;;3.23;1.70;;;39.50;99.90;;;;;;5014891;28;20963;-84
2023/03/18 09:34:54;;;;;;;3.80;2.10;;;39.30;99.90;;;;;;5020787;28;20175;-84
2023/03/18 09:37:46;;;;;;;11.20;6.93;;;39.80;99.90;;;;;;5018317;28;20464;-83
2023/03/18 09:47:16;;;;;;;;;;;;;;;;;;;;;
2023/03/18 09:53:38;;;;;;;3.23;2.00;;;42.60;99.90;;;;;;5005917;28;20451;-82
2023/03/18 09:57:05;;;;;;;2.63;1.60;;;42.60;99.90;;;;;;4998149;28;20507;-83
2023/03/18 10:09:46;;;;;;;2.40;1.70;;;42.20;99.90;;;;;;5007891;28;20473;-84
2023/03/18 10:12:51;;;;;;;;;;;;;;;;;;;;;
2023/03/18 10:15:42;;;;;;;3.70;1.57;;;41.90;99.90;;;;;;5013516;28;20504;-82
2023/03/18 10:18:43;;;;;;;3.07;1.27;;;41.70;99.90;;;;;;5026182;28;20496;-84
2023/03/18 10:21:34;;;;;;;;;;;;;;;;;;;;;
2023/03/18 10:24:13;;;;;;;3.10;1.60;;;39.80;99.90;;;;;;5015183;28;20948;-84
2023/03/18 10:26:45;;;;;;;3.40;1.83;;;39.70;99.90;;;;;;5018710;28;20535;-82
2023/03/18 10:29:51;;;;;;;4.17;1.73;;;40.40;99.90;;;;;;5026441;28;20434;-84
2023/03/18 10:32:49;;;;;;;2.57;1.77;;;40.50;99.90;;;;;;5013181;28;20507;-84
2023/03/18 10:41:48;;;;;;;2.90;1.60;;;41.60;99.90;;;;;;4998461;28;20446;-84
2023/03/18 10:44:29;;;;;;;3.00;1.87;;;41.50;99.90;;;;;;5002782;28;20434;-84
2023/03/18 10:47:04;;;;;;;2.00;1.40;;;41.40;99.90;;;;;;5006726;28;20474;-85
2023/03/18 10:49:43;;;;;;;1.83;1.30;;;41.30;99.90;;;;;;5011678;28;20481;-85
2023/03/18 10:52:29;;;;;;;2.10;1.43;;;41.20;99.90;;;;;;5015281;28;20454;-84
2023/03/18 10:54:58;;;;;;;1.93;1.50;;;41.20;99.90;;;;;;5006753;28;20465;-85
2023/03/18 10:57:24;;;;;;;3.80;2.43;;;41.30;99.90;;;;;;4996345;28;20457;-85
2023/03/18 10:59:52;;;;;;;2.40;1.77;;;41.30;99.90;;;;;;5017568;28;20443;-86
2023/03/18 11:02:33;;;;;;;2.27;1.50;;;40.80;99.90;;;;;;5016638;28;20229;-84
2023/03/18 11:05:05;;;;;;;4.23;1.77;;;40.30;99.90;;;;;;5021407;28;20449;-85
2023/03/18 11:07:31;;;;;;;2.43;1.00;;;39.80;99.90;;;;;;5014779;28;20500;-83
2023/03/18 11:10:16;;;;;;;2.73;1.50;;;39.50;99.90;;;;;;5002501;28;20429;-83
2023/03/18 11:12:47;;;;;;;1.87;1.30;;;39.60;99.90;;;;;;5024206;28;20201;-84
2023/03/18 11:15:20;;;;;;;3.90;1.30;;;39.20;99.90;;;;;;5006828;28;20448;-84
2023/03/18 11:18:00;;;;;;;;;;;;;;;;;;;;;
2023/03/18 11:20:48;;;;;;;1.70;1.20;;;40.40;99.90;;;;;;5015741;28;20517;-85
2023/03/18 11:24:07;;;;;;;2.80;1.10;;;39.80;99.90;;;;;;5014998;28;20474;-84
2023/03/18 11:26:44;;;;;;;3.60;1.30;;;38.50;99.90;;;;;;5024370;28;20478;-84
2023/03/18 11:29:25;;;;;;;;;;;;;;;;;;;;;
2023/03/18 11:32:10;;;;;;;;;;;;;;;;;;;;;
2023/03/18 11:35:16;;;;;;;1.50;1.20;;;36.00;99.90;;;;;;5022222;28;20462;-83
2023/03/18 11:38:26;;;;;;;2.60;1.03;;;35.20;99.90;;;;;;5008377;28;20467;-85
2023/03/18 11:41:48;;;;;;;;;;;;;;;;;;;;;
2023/03/18 11:45:07;;;;;;;;;;;;;;;;;;;;;
2023/03/18 11:47:35;;;;;;;2.73;1.07;;;33.80;99.90;;;;;;5015605;28;20572;-84
2023/03/18 11:50:15;;;;;;;3.90;1.00;;;33.70;99.90;;;;;;5025367;28;20920;-83
2023/03/18 11:52:53;;;;;;;1.97;0.80;;;34.20;99.90;;;;;;5023150;28;20476;-84
2023/03/18 11:55:57;;;;;;;1.97;0.97;;;33.90;99.90;;;;;;5022689;28;20445;-82
2023/03/18 11:58:53;;;;;;;3.00;0.90;;;33.20;99.90;;;;;;5012818;28;20513;-83
2023/03/18 12:01:49;;;;;;;1.77;0.70;;;32.40;99.90;;;;;;4990319;28;20463;-85
2023/03/18 12:04:48;;;;;;;4.13;1.17;;;32.40;99.90;;;;;;4994584;28;20441;-84
2023/03/18 12:07:36;;;;;;;4.57;0.90;;;32.60;99.90;;;;;;4998494;28;20471;-84
2023/03/18 12:10:25;;;;;;;1.97;1.20;;;31.90;99.90;;;;;;5018317;28;20483;-83
2023/03/18 12:13:05;;;;;;;2.43;1.33;;;31.20;99.90;;;;;;5022705;28;20441;-83
2023/03/18 12:15:53;;;;;;;3.40;1.33;;;30.50;99.90;;;;;;5021201;28;20459;-85
2023/03/18 12:18:56;;;;;;;2.23;0.90;;;29.70;99.90;;;;;;5015073;28;20450;-83
2023/03/18 12:21:41;;;;;;;2.73;1.20;;;28.90;99.90;;;;;;5003624;28;20442;-84
2023/03/18 12:24:52;;;;;;;3.30;1.10;;;28.10;99.90;;;;;;5019087;28;20429;-83
2023/03/18 12:27:36;;;;;;;;;;;;;;;;;;;;;
2023/03/18 12:30:37;;;;;;;1.83;1.00;;;26.70;99.90;;;;;;5018492;28;20529;-83
2023/03/18 12:33:19;;;;;;;3.50;1.17;;;26.30;99.90;;;;;;5014671;28;20445;-83
2023/03/18 12:35:58;;;;;;;1.83;0.97;;;25.90;99.90;;;;;;5009007;28;20442;-82
2023/03/18 12:38:52;;;;;;;1.77;1.20;;;25.60;99.90;;;;;;5000126;28;20500;-83
2023/03/18 12:41:24;;;;;;;3.80;1.17;;;25.20;99.90;;;;;;5009985;28;20461;-82
2023/03/18 12:44:25;;;;;;;2.27;1.10;;;24.70;99.90;;;;;;5020102;28;20442;-82
2023/03/18 12:47:05;;;;;;;2.40;1.20;;;24.30;99.90;;;;;;5010163;28;20869;-83
2023/03/18 12:49:42;;;;;;;4.10;1.10;;;23.80;99.90;;;;;;5021490;28;20457;-84
2023/03/18 12:52:14;;;;;;;2.33;1.23;;;23.60;99.90;;;;;;5007417;28;20473;-83
2023/03/18 12:54:55;;;;;;;2.00;1.50;;;23.50;99.90;;;;;;5012659;28;20443;-83
2023/03/18 12:57:37;;;;;;;4.00;1.40;;;23.40;99.90;;;;;;5018290;28;20484;-82
2023/03/18 13:00:28;;;;;;;1.47;1.07;;;23.40;99.90;;;;;;4998484;28;20437;-82
2023/03/18 13:03:27;;;;;;;3.10;1.37;;;23.20;99.90;;;;;;5009141;28;20433;-83
2023/03/18 13:06:07;;;;;;;2.70;1.60;;;23.00;99.90;;;;;;4992631;28;20471;-81
2023/03/18 13:08:50;;;;;;;2.63;1.40;;;22.80;99.90;;;;;;5008439;28;20479;-83
2023/03/18 13:12:03;;;;;;;3.10;1.60;;;22.60;99.90;;;;;;5009548;28;20491;-82
2023/03/18 13:14:31;;;;;;;2.17;1.50;;;22.50;99.90;;;;;;4993461;28;20432;-82
2023/03/18 13:16:58;;;;;;;5.20;1.57;;;22.30;99.90;;;;;;5012138;28;20478;-84
2023/03/18 13:19:24;;;;;;;4.27;1.87;;;22.20;99.90;;;;;;5020209;28;20451;-82
2023/03/18 13:22:22;;;;;;;4.23;1.97;;;22.10;99.90;;;;;;5021808;28;20462;-81
2023/03/18 13:25:12;;;;;;;3.27;1.90;;;22.20;99.90;;;;;;5009267;28;20469;-81
2023/03/18 13:27:59;;;;;;;4.60;1.87;;;22.20;99.90;;;;;;4997851;28;20515;-83
2023/03/18 13:30:34;;;;;;;4.20;1.90;;;22.00;99.90;;;;;;5015709;28;20441;-82
2023/03/18 13:33:28;;;;;;;3.97;2.10;;;21.80;99.90;;;;;;5018973;28;20438;-82
2023/03/18 13:36:22;;;;;;;4.43;1.67;;;21.60;99.90;;;;;;4996760;28;20523;-82
2023/03/18 13:39:25;;;;;;;5.50;2.10;;;21.50;99.90;;;;;;5024856;28;20440;-83
2023/03/18 13:42:18;;;;;;;3.37;1.73;;;21.50;99.90;;;;;;4970622;28;20488;-81
2023/03/18 13:45:24;;;;;;;;;;;;;;;;;;;;;
2023/03/18 13:49:02;;;;;;;;;;;;;;;;;;;;;
2023/03/18 13:51:38;;;;;;;;;;;;;;;;;;;;;
2023/03/18 13:54:20;;;;;;;4.93;2.73;;;22.70;99.90;;;;;;5012106;28;20536;-82
2023/03/18 13:56:58;;;;;;;5.17;2.10;;;23.40;99.90;;;;;;5008352;28;20449;-82
2023/03/18 14:09:46;;;;;;;;;;;;;;;;;;;;;
2023/03/18 14:12:29;;;;;;;;;;;;;;;;;;;;;
2023/03/18 14:19:00;;;;;;;5.27;2.83;;;27.40;99.90;;;;;;5007554;28;20449;-82
2023/03/18 14:32:28;;;;;;;4.73;2.37;;;26.60;99.90;;;;;;4933418;28;20469;-84
2023/03/18 14:35:29;;;;;;;;;;;;;;;;;;;;;
2023/03/18 14:45:48;;;;;;;5.50;2.30;;;25.40;99.90;;;;;;4974957;28;20465;-81
2023/03/18 14:52:38;;;;;;;6.43;2.30;;;26.20;99.90;;;;;;4999851;28;20473;-83
2023/03/18 14:59:16;;;;;;;;;;;;;;;;;;;;;
2023/03/18 15:19:26;;;;;;;;;;;;;;;;;;;;;
2023/03/18 15:25:26;;;;;;;5.30;1.30;;;25.70;99.90;;;;;;5008627;28;20453;-81
2023/03/18 15:28:24;;;;;;;;;;;;;;;;;;;;;
2023/03/18 15:31:04;;;;;;;;;;;;;;;;;;;;;
2023/03/18 15:34:17;;;;;;;2.40;1.40;;;24.10;99.90;;;;;;5016384;28;20486;-81
2023/03/18 15:37:28;;;;;;;3.10;1.73;;;23.90;99.90;;;;;;5022177;28;20464;-83
2023/03/18 15:40:15;;;;;;;4.97;1.90;;;23.50;99.90;;;;;;5024428;28;20438;-83
2023/03/18 15:43:05;;;;;;;3.77;1.63;;;23.40;99.90;;;;;;5018130;28;20457;-83
2023/03/18 15:55:30;;;;;;;2.93;1.33;;;23.00;99.90;;;;;;4974711;28;21443;-82
2023/03/18 15:58:11;;;;;;;;;;;;;;;;;;;;;
2023/03/18 16:01:20;;;;;;;4.33;1.53;;;22.90;99.90;;;;;;5019693;28;20516;-83
2023/03/18 16:04:24;;;;;;;3.40;1.30;;;22.60;99.90;;;;;;4996074;28;20451;-84
2023/03/18 16:14:26;;;;;;;;;;;;;;;;;;;;;
2023/03/18 16:17:51;;;;;;;;;;;;;;;;;;;;;
2023/03/18 16:23:46;;;;;;;;;;;;;;;;;;;;;
2023/03/18 16:26:55;;;;;;;1.87;1.20;;;22.00;99.90;;;;;;5018411;28;20896;-81
2023/03/18 16:36:52;;;;;;;;;;;;;;;;;;;;;
2023/03/18 16:40:17;;;;;;;;;;;;;;;;;;;;;
2023/03/18 16:43:20;;;;;;;2.10;1.10;;;21.10;99.90;;;;;;5017839;28;20488;-83
2023/03/18 16:53:16;;;;;;;;;;;;;;;;;;;;;
2023/03/18 16:56:50;;;;;;;2.90;1.30;;;20.50;99.90;;;;;;5006577;28;20429;-83
2023/03/18 16:59:39;;;;;;;2.77;1.40;;;20.30;99.90;;;;;;5015584;28;20471;-82
2023/03/18 17:12:56;;;;;;;3.07;1.67;;;19.70;99.90;;;;;;5010545;28;20448;-82
2023/03/18 17:15:44;;;;;;;3.47;1.90;;;19.50;99.90;;;;;;4998161;28;20824;-83
2023/03/18 17:25:01;;;;;;;2.57;1.77;;;19.20;99.90;;;;;;5007917;28;20559;-82
2023/03/18 17:28:16;;;;;;;3.23;1.60;;;19.00;99.90;;;;;;4995434;28;20978;-83
2023/03/18 17:34:38;;;;;;;;;;;;;;;;;;;;;
2023/03/18 17:40:40;;;;;;;3.13;1.90;;;18.50;99.90;;;;;;5001565;28;20503;-83
2023/03/18 17:43:18;;;;;;;;;;;;;;;;;;;;;
2023/03/18 17:45:54;;;;;;;;;;;;;;;;;;;;;
2023/03/18 17:49:19;;;;;;;;;;;;;;;;;;;;;
2023/03/18 17:58:30;;;;;;;3.20;1.97;;;17.70;99.90;;;;;;5012736;28;20426;-84
2023/03/18 18:01:22;;;;;;;;;;;;;;;;;;;;;
2023/03/18 18:03:48;;;;;;;3.30;1.80;;;17.50;99.90;;;;;;5017657;28;20553;-83
2023/03/18 18:06:19;;;;;;;3.27;2.33;;;17.40;99.90;;;;;;5016199;28;20449;-81
2023/03/18 18:08:46;;;;;;;4.73;2.20;;;17.30;99.90;;;;;;5018318;28;20449;-81
2023/03/18 18:11:29;;;;;;;3.23;2.57;;;17.30;99.90;;;;;;4992322;28;20523;-80
2023/03/18 18:14:02;;;;;;;6.23;4.00;;;17.20;99.90;;;;;;5015356;28;20445;-82
2023/03/18 18:16:36;;;;;;;4.40;2.90;;;17.20;99.90;;;;;;4991279;28;20534;-84
2023/03/18 18:19:02;;;;;;;3.30;1.90;;;17.10;99.90;;;;;;5019766;28;20468;-81
2023/03/18 18:21:29;;;;;;;3.43;1.87;;;17.00;99.90;;;;;;5009789;28;20881;-81
2023/03/18 18:23:57;;;;;;;3.43;2.20;;;17.00;99.90;;;;;;5016275;28;20182;-81
2023/03/18 18:26:23;;;;;;;4.20;2.20;;;16.90;99.90;;;;;;5012873;28;20450;-82
2023/03/18 18:28:50;;;;;;;4.93;2.73;;;16.80;99.90;;;;;;4997790;28;20447;-83
2023/03/18 18:31:33;;;;;;;9.40;4.20;;;16.80;99.90;;;;;;5006977;28;20673;-84
2023/03/18 18:33:58;;;;;;;5.00;3.60;;;16.80;99.90;;;;;;5017826;28;20471;-82
2023/03/18 18:36:57;;;;;;;;;;;;;;;;;;;;;
2023/03/18 18:43:21;;;;;;;3.43;2.50;;;16.50;99.90;;;;;;5005524;28;20566;-83
2023/03/18 18:46:35;;;;;;;;;;;;;;;;;;;;;
2023/03/18 18:49:09;;;;;;;3.30;2.53;;;16.40;99.90;;;;;;5010188;28;20532;-82
2023/03/18 18:51:35;;;;;;;4.70;3.83;;;16.30;99.90;;;;;;5010657;28;20479;-81
2023/03/18 18:54:03;;;;;;;3.90;2.80;;;16.30;99.90;;;;;;5010153;28;20437;-80
2023/03/18 18:56:33;;;;;;;6.23;2.83;;;16.20;99.90;;;;;;5007664;28;20258;-82
2023/03/18 18:58:59;;;;;;;8.50;2.70;;;16.30;99.90;;;;;;5008777;28;20441;-81
2023/03/18 19:01:27;;;;;;;6.67;3.30;;;16.20;99.90;;;;;;5012869;28;20469;-84
2023/03/18 19:03:54;;;;;;;6.03;3.10;;;16.20;99.90;;;;;;5006541;28;20451;-83
2023/03/18 19:06:29;;;;;;;6.60;2.87;;;16.20;99.90;;;;;;4999899;28;20504;-82
2023/03/18 19:12:04;;;;;;;5.50;3.07;;;16.20;99.90;;;;;;5007392;28;20453;-82
2023/03/18 19:14:32;;;;;;;4.27;3.27;;;16.10;99.90;;;;;;5011869;28;20452;-83
2023/03/18 19:17:02;;;;;;;4.50;2.50;;;16.00;99.90;;;;;;5019790;28;20464;-82
2023/03/18 19:19:35;;;;;;;2.53;2.20;;;16.00;99.90;;;;;;5018803;28;20447;-83
2023/03/18 19:22:20;;;;;;;5.40;2.60;;;15.90;99.90;;;;;;4998127;28;20459;-82
2023/03/18 19:28:20;;;;;;;5.03;3.20;;;15.90;99.90;;;;;;4995683;28;20528;-83
2023/03/18 19:31:27;;;;;;;;;;;;;;;;;;;;;
2023/03/18 19:34:15;;;;;;;7.07;3.53;;;15.80;99.90;;;;;;5011946;28;20432;-81
2023/03/18 19:37:03;;;;;;;7.67;3.53;;;15.70;99.90;;;;;;5009194;28;20458;-83
2023/03/18 19:39:50;;;;;;;4.27;2.97;;;15.70;99.90;;;;;;5013400;28;20443;-82
2023/03/18 19:43:01;;;;;;;7.73;3.00;;;15.60;99.90;;;;;;5015104;28;20516;-83
2023/03/18 19:49:24;;;;;;;;;;;;;;;;;;;;;
2023/03/18 19:55:36;;;;;;;6.30;4.20;;;15.50;99.90;;;;;;4992940;28;20460;-83
2023/03/18 19:58:33;;;;;;;13.43;7.50;;;15.50;99.90;;;;;;5004998;28;20488;-84
2023/03/18 20:01:31;;;;;;;9.53;3.80;;;15.50;99.90;;;;;;5004231;28;20524;-84
2023/03/18 20:04:50;;;;;;;;;;;;;;;;;;;;;
2023/03/18 20:07:20;;;;;;;7.43;2.77;;;15.40;99.90;;;;;;5014447;28;20564;-83
2023/03/18 20:09:48;;;;;;;3.90;2.67;;;15.40;99.90;;;;;;5015607;28;20440;-83
2023/03/18 20:12:27;;;;;;;4.90;3.27;;;15.40;99.90;;;;;;5020355;28;20452;-82
2023/03/18 20:14:52;;;;;;;5.90;2.40;;;15.30;99.90;;;;;;5016997;28;20463;-82
2023/03/18 20:17:33;;;;;;;3.80;2.60;;;15.30;99.90;;;;;;5010402;28;20458;-82
2023/03/18 20:19:58;;;;;;;3.50;2.97;;;15.30;99.90;;;;;;5014509;28;20797;-82
2023/03/18 20:22:51;;;;;;;5.93;3.40;;;15.20;99.90;;;;;;5022451;28;20495;-82
2023/03/18 20:25:29;;;;;;;6.20;2.77;;;15.20;99.90;;;;;;5014531;28;20276;-81
2023/03/18 20:27:56;;;;;;;3.20;2.73;;;15.10;99.90;;;;;;5017311;28;20473;-82
2023/03/18 20:30:32;;;;;;;6.50;2.90;;;15.10;99.90;;;;;;5018915;28;20444;-82
2023/03/18 20:32:59;;;;;;;4.83;2.93;;;15.10;99.90;;;;;;5009027;28;20452;-83
2023/03/18 20:35:30;;;;;;;4.40;2.90;;;15.00;99.90;;;;;;5022435;28;20443;-81
2023/03/18 20:37:57;;;;;;;5.00;2.70;;;15.00;99.90;;;;;;5018805;28;20440;-82
2023/03/18 20:40:28;;;;;;;5.70;2.60;;;14.90;99.90;;;;;;5016106;28;20540;-82
2023/03/18 20:42:54;;;;;;;5.33;2.87;;;14.90;99.90;;;;;;5014367;28;20503;-81
2023/03/18 20:45:44;;;;;;;8.60;2.80;;;14.80;99.90;;;;;;5012534;28;20444;-83
2023/03/18 20:48:13;;;;;;;7.13;3.63;;;14.90;99.90;;;;;;5004692;28;20476;-83
2023/03/18 20:51:07;;;;;;;5.57;3.30;;;14.80;99.90;;;;;;5017491;28;20485;-84
2023/03/18 20:54:16;;;;;;;6.00;2.87;;;14.80;99.90;;;;;;5011509;28;20447;-84
2023/03/18 20:57:03;;;;;;;;;;;;;;;;;;;;;
2023/03/18 21:06:16;;;;;;;;;;;;;;;;;;;;;
2023/03/18 21:12:18;;;;;;;5.63;2.53;;;14.60;99.90;;;;;;5011798;28;20466;-85
2023/03/18 21:14:46;;;;;;;4.10;2.03;;;14.50;99.90;;;;;;5005177;28;20446;-85
2023/03/18 21:17:19;;;;;;;3.60;2.17;;;14.50;99.90;;;;;;5019085;28;21030;-84
2023/03/18 21:19:48;;;;;;;4.47;2.60;;;14.50;99.90;;;;;;5015143;28;20433;-84
2023/03/18 21:22:35;;;;;;;3.87;2.20;;;14.50;99.90;;;;;;5022425;28;20455;-83
2023/03/18 21:32:23;;;;;;;2.10;1.60;;;14.40;99.90;;;;;;5015968;28;20458;-85
2023/03/18 21:35:49;;;;;;;2.20;1.70;;;14.40;99.90;;;;;;5014266;28;20464;-84
2023/03/18 21:38:18;;;;;;;8.13;1.70;;;14.40;99.90;;;;;;5006948;28;20443;-85
2023/03/18 21:40:46;;;;;;;3.73;1.50;;;14.30;99.90;;;;;;5011166;28;20507;-84
2023/03/18 21:43:30;;;;;;;2.83;1.80;;;14.30;99.90;;;;;;4984461;28;20499;-84
2023/03/18 21:45:56;;;;;;;2.33;1.70;;;14.30;99.90;;;;;;5009366;28;20437;-84
2023/03/18 21:48:24;;;;;;;3.10;1.97;;;14.30;99.90;;;;;;5003929;28;20979;-83
2023/03/18 21:51:16;;;;;;;3.57;1.60;;;14.30;99.90;;;;;;5000428;28;20214;-83
2023/03/18 21:53:45;;;;;;;4.87;2.30;;;14.30;99.90;;;;;;4986826;28;20428;-85
2023/03/18 21:56:10;;;;;;;4.23;1.83;;;14.30;99.90;;;;;;5011034;28;20865;-84
2023/03/18 21:58:55;;;;;;;5.07;2.27;;;14.30;99.90;;;;;;4991162;28;20529;-84
2023/03/18 22:01:33;;;;;;;2.83;1.70;;;14.30;99.90;;;;;;5005456;28;20629;-84
2023/03/18 22:03:59;;;;;;;3.43;2.70;;;14.40;99.90;;;;;;4986435;28;20461;-85
2023/03/18 22:06:25;;;;;;;3.80;2.13;;;14.40;99.90;;;;;;4999136;28;20434;-83
2023/03/18 22:08:50;;;;;;;4.77;2.73;;;14.40;99.90;;;;;;4998106;28;20192;-83
2023/03/18 22:11:29;;;;;;;4.50;2.73;;;14.50;99.90;;;;;;4988945;28;20226;-83
2023/03/18 22:13:55;;;;;;;3.77;2.47;;;14.50;99.90;;;;;;4987573;28;20187;-83
2023/03/18 22:16:23;;;;;;;3.27;2.60;;;14.50;99.90;;;;;;4988188;28;20439;-84
2023/03/18 22:18:50;;;;;;;3.20;2.90;;;14.50;99.90;;;;;;5003609;28;20184;-83
2023/03/18 22:21:54;;;;;;;3.67;3.27;;;14.40;99.90;;;;;;4993013;28;20455;-84
2023/03/18 22:25:07;;;;;;;;;;;;;;;;;;;;;
2023/03/18 22:31:04;;;;;;;8.10;4.40;;;14.10;1.00;;;;;;5004018;28;20868;-82
2023/03/18 22:33:32;;;;;;;7.23;3.83;;;13.90;68.10;;;;;;5000745;28;20438;-81
2023/03/18 22:35:58;;;;;;;6.17;3.73;;;13.70;99.90;;;;;;5014740;28;20787;-83
2023/03/18 22:38:30;;;;;;;10.20;3.00;;;13.60;1.00;;;;;;5014646;28;20430;-83
2023/03/18 22:40:58;;;;;;;30.53;5.00;;;13.50;1.00;;;;;;5014296;28;20441;-83
2023/03/18 22:43:33;;;;;;;4.27;1.60;;;13.30;1.00;;;;;;5008218;28;21126;-84
2023/03/18 22:46:11;;;;;;;6.40;3.27;;;13.00;1.00;;;;;;5001684;28;20445;-84
2023/03/18 22:48:39;;;;;;;7.37;3.80;;;12.70;99.90;;;;;;5019371;28;20541;-83
2023/03/18 22:51:05;;;;;;;4.90;4.40;;;12.50;1.00;;;;;;5023054;28;20462;-82
2023/03/18 22:53:36;;;;;;;9.10;3.93;;;12.40;55.60;;;;;;4999891;28;20868;-84
2023/03/18 22:56:12;;;;;;;4.27;3.63;;;12.30;99.90;;;;;;5018350;28;20441;-84
2023/03/18 22:58:47;;;;;;;4.30;3.33;;;12.20;99.90;;;;;;5011469;28;20437;-83
2023/03/18 23:01:15;;;;;;;5.70;3.70;;;12.20;99.90;;;;;;5000554;28;20461;-84
2023/03/18 23:03:43;;;;;;;6.57;3.70;;;12.20;99.90;;;;;;5018321;28;20438;-83
2023/03/18 23:06:22;;;;;;;9.83;5.07;;;12.20;99.90;;;;;;5019554;28;20947;-83
2023/03/18 23:08:52;;;;;;;5.87;3.67;;;12.30;99.90;;;;;;5014139;28;20441;-83
2023/03/18 23:11:26;;;;;;;5.53;3.60;;;12.30;99.90;;;;;;5013191;28;20793;-83
2023/03/18 23:13:54;;;;;;;7.30;4.10;;;12.30;99.90;;;;;;5020370;28;20521;-84
2023/03/18 23:16:57;;;;;;;;;;;;;;;;;;;;;
2023/03/18 23:19:46;;;;;;;3.90;3.47;;;12.40;99.90;;;;;;5020464;28;20600;-83
2023/03/18 23:25:49;;;;;;;;;;;;;;;;;;;;;
2023/03/18 23:32:27;;;;;;;7.60;2.70;;;12.40;99.90;;;;;;5013296;28;20500;-85
2023/03/18 23:35:07;;;;;;;;;;;;;;;;;;;;;
2023/03/18 23:38:03;;;;;;;8.10;3.10;;;12.40;99.90;;;;;;5021600;28;20472;-84
2023/03/18 23:44:19;;;;;;;;;;;;;;;;;;;;;
2023/03/18 23:46:54;;;;;;;3.07;2.60;;;12.50;99.90;;;;;;5020987;28;20524;-84
2023/03/18 23:49:38;;;;;;;4.90;2.93;;;12.60;99.90;;;;;;4998836;28;20423;-84
2023/03/18 23:59:24;;;;;;;;;;;;;;;;;;;;;
